createdAt,value
2022-08-16T00:02:25.772Z,19.20
2022-08-16T00:07:29.808Z,19.20
2022-08-16T00:12:32.210Z,19.20
2022-08-16T00:17:55.857Z,19.20
2022-08-16T00:22:56.591Z,19.20
2022-08-16T00:28:00.105Z,19.20
2022-08-16T00:33:03.125Z,19.20
2022-08-16T00:38:40.652Z,19.20
2022-08-16T00:43:42.833Z,19.00
2022-08-16T00:48:46.467Z,19.00
2022-08-16T00:53:50.413Z,19.00
2022-08-16T00:58:53.735Z,19.00
2022-08-16T01:03:56.406Z,19.00
2022-08-16T01:08:59.923Z,18.90
2022-08-16T01:14:20.212Z,18.90
2022-08-16T01:19:31.719Z,18.90
2022-08-16T01:24:53.906Z,18.80
2022-08-16T01:30:20.058Z,18.80
2022-08-16T01:35:35.352Z,18.80
2022-08-16T01:40:40.622Z,18.80
2022-08-16T01:45:43.587Z,18.80
2022-08-16T01:51:08.221Z,18.90
2022-08-16T01:56:24.573Z,18.90
2022-08-16T02:01:29.606Z,18.80
2022-08-16T02:06:37.983Z,18.80
2022-08-16T02:11:53.086Z,18.70
2022-08-16T02:16:58.115Z,18.60
2022-08-16T02:22:08.434Z,18.50
2022-08-16T02:27:24.548Z,18.50
2022-08-16T02:32:50.478Z,18.40
2022-08-16T02:37:52.673Z,18.40
2022-08-16T02:42:57.289Z,18.40
2022-08-16T02:48:28.240Z,18.40
2022-08-16T02:53:23.698Z,18.40
2022-08-16T02:58:27.290Z,18.40
2022-08-16T03:04:30.131Z,18.40
2022-08-16T03:08:54.089Z,18.40
2022-08-16T03:13:59.496Z,18.40
2022-08-16T03:19:02.383Z,18.40
2022-08-16T03:24:28.168Z,18.40
2022-08-16T03:29:33.806Z,18.40
2022-08-16T03:34:38.503Z,18.40
2022-08-16T03:39:42.838Z,18.40
2022-08-16T03:44:49.236Z,18.40
2022-08-16T03:49:55.068Z,18.30
2022-08-16T03:54:59.287Z,18.30
2022-08-16T04:00:35.755Z,18.20
2022-08-16T04:05:46.734Z,18.30
2022-08-16T04:10:55.212Z,18.30
2022-08-16T04:16:02.278Z,18.20
2022-08-16T04:21:09.872Z,18.20
2022-08-16T04:26:17.034Z,18.20
2022-08-16T04:31:20.783Z,18.20
2022-08-16T04:36:24.056Z,18.20
2022-08-16T04:41:32.583Z,18.20
2022-08-16T04:47:00.275Z,18.20
2022-08-16T04:52:00.333Z,18.10
2022-08-16T04:57:06.004Z,18.00
2022-08-16T05:02:41.044Z,17.90
2022-08-16T05:07:31.818Z,18.00
2022-08-16T05:12:39.435Z,18.10
2022-08-16T05:17:48.498Z,18.20
2022-08-16T05:23:01.470Z,18.20
2022-08-16T05:28:05.999Z,18.20
2022-08-16T05:33:16.736Z,18.20
2022-08-16T05:38:32.808Z,18.20
2022-08-16T05:43:47.009Z,18.10
2022-08-16T05:49:08.554Z,18.00
2022-08-16T05:54:17.471Z,18.00
2022-08-16T05:59:28.736Z,18.00
2022-08-16T06:04:36.189Z,18.00
2022-08-16T06:09:43.567Z,18.10
2022-08-16T06:14:49.133Z,18.10
2022-08-16T06:19:55.485Z,18.10
2022-08-16T06:24:59.032Z,18.10
2022-08-16T06:30:03.604Z,18.20
2022-08-16T06:35:08.549Z,18.20
2022-08-16T06:40:16.055Z,18.20
2022-08-16T06:45:29.018Z,18.30
2022-08-16T06:50:49.894Z,18.40
2022-08-16T06:55:57.451Z,18.50
2022-08-16T07:01:04.230Z,18.70
2022-08-16T07:06:13.676Z,18.90
2022-08-16T07:11:20.915Z,19.10
2022-08-16T07:16:44.658Z,19.20
2022-08-16T07:21:59.460Z,19.40
2022-08-16T07:27:02.969Z,19.40
2022-08-16T07:32:06.618Z,19.40
2022-08-16T07:37:11.590Z,19.50
2022-08-16T07:42:39.582Z,19.40
2022-08-16T07:47:44.458Z,19.50
2022-08-16T07:52:50.134Z,19.60
2022-08-16T07:57:59.812Z,19.80
2022-08-16T08:03:05.101Z,19.90
2022-08-16T08:08:11.481Z,20.00
2022-08-16T08:13:42.322Z,20.10
2022-08-16T08:18:56.268Z,20.10
2022-08-16T08:24:05.374Z,20.10
2022-08-16T08:29:13.111Z,20.10
2022-08-16T08:34:15.708Z,20.10
2022-08-16T08:39:22.158Z,20.10
2022-08-16T08:44:28.563Z,20.20
2022-08-16T08:49:50.569Z,20.40
2022-08-16T08:55:00.521Z,20.90
2022-08-16T09:00:13.275Z,21.40
2022-08-16T09:05:18.986Z,21.80
2022-08-16T09:10:24.133Z,22.00
2022-08-16T09:15:33.627Z,22.00
2022-08-16T09:20:36.337Z,22.20
2022-08-16T09:25:58.619Z,22.30
2022-08-16T09:31:01.333Z,22.40
2022-08-16T09:36:03.832Z,22.10
2022-08-16T09:41:14.696Z,21.80
2022-08-16T09:46:44.398Z,21.60
2022-08-16T09:51:40.219Z,21.30
2022-08-16T09:56:53.091Z,21.20
2022-08-16T10:01:55.937Z,21.40
2022-08-16T10:12:24.589Z,22.40
2022-08-16T10:17:30.609Z,23.00
2022-08-16T10:22:33.336Z,23.00
2022-08-16T10:27:46.250Z,23.00
2022-08-16T10:32:59.336Z,22.40
2022-08-16T10:38:02.046Z,21.70
2022-08-16T10:43:09.063Z,21.40
2022-08-16T10:48:28.117Z,21.30
2022-08-16T10:53:33.049Z,21.20
2022-08-16T10:58:37.608Z,21.30
2022-08-16T11:03:42.402Z,21.70
2022-08-16T11:08:46.698Z,21.70
2022-08-16T11:13:58.674Z,21.70
2022-08-16T11:19:06.363Z,21.60
2022-08-16T11:24:39.896Z,22.10
2022-08-16T11:29:37.110Z,22.70
2022-08-16T11:35:05.977Z,22.70
2022-08-16T11:40:04.828Z,22.40
2022-08-16T11:45:08.180Z,22.40
2022-08-16T11:50:11.550Z,22.00
2022-08-16T11:55:13.748Z,21.80
2022-08-16T12:00:33.554Z,21.60
2022-08-16T12:05:43.720Z,21.60
2022-08-16T12:10:46.676Z,21.70
2022-08-16T12:15:49.395Z,22.60
2022-08-16T12:20:55.059Z,23.40
2022-08-16T12:25:58.364Z,25.10
2022-08-16T12:31:02.021Z,25.90
2022-08-16T12:36:04.563Z,26.70
2022-08-16T12:41:14.396Z,26.90
2022-08-16T12:46:27.069Z,27.10
2022-08-16T12:51:58.796Z,27.10
2022-08-16T12:57:01.314Z,26.30
2022-08-16T13:02:05.997Z,26.20
2022-08-16T13:07:08.735Z,25.50
2022-08-16T13:12:25.111Z,24.40
2022-08-16T13:17:29.774Z,22.70
2022-08-16T13:22:32.362Z,22.30
2022-08-16T13:28:02.102Z,23.10
2022-08-16T13:32:57.919Z,24.00
2022-08-16T13:38:00.291Z,23.80
2022-08-16T13:43:03.683Z,23.20
2022-08-16T13:48:06.484Z,23.30
2022-08-16T13:53:08.846Z,23.00
2022-08-16T13:58:36.881Z,22.90
2022-08-16T14:03:34.349Z,22.80
2022-08-16T14:08:37.609Z,22.50
2022-08-16T14:13:44.923Z,22.10
2022-08-16T14:18:47.455Z,21.60
2022-08-16T14:23:51.964Z,21.00
2022-08-16T14:28:55.109Z,20.60
2022-08-16T14:34:04.752Z,20.20
2022-08-16T14:39:07.614Z,20.10
2022-08-16T14:44:09.786Z,20.00
2022-08-16T14:49:13.117Z,19.60
2022-08-16T14:54:16.230Z,19.40
2022-08-16T14:59:18.486Z,19.10
2022-08-16T15:04:33.312Z,18.90
2022-08-16T15:09:59.833Z,18.80
2022-08-16T15:15:12.645Z,18.90
2022-08-16T15:20:19.524Z,19.30
2022-08-16T15:25:31.911Z,19.50
2022-08-16T15:30:56.869Z,19.60
2022-08-16T15:36:01.171Z,19.70
2022-08-16T15:41:04.048Z,19.80
2022-08-16T15:46:35.480Z,19.70
2022-08-16T15:51:46.974Z,19.90
2022-08-16T15:56:51.534Z,19.70
2022-08-16T16:01:58.295Z,19.60
2022-08-16T16:07:00.676Z,19.60
2022-08-16T16:12:16.302Z,19.70
2022-08-16T16:17:26.683Z,19.80
2022-08-16T16:22:31.800Z,19.80
2022-08-16T16:27:34.618Z,19.80
2022-08-16T16:32:37.103Z,20.30
2022-08-16T16:37:43.755Z,21.70
2022-08-16T16:42:46.153Z,22.80
2022-08-16T16:47:54.371Z,22.60
2022-08-16T16:52:57.881Z,22.10
2022-08-16T16:58:35.062Z,21.30
2022-08-16T17:03:38.842Z,20.80
2022-08-16T17:08:43.105Z,20.70
2022-08-16T17:13:46.042Z,20.60
2022-08-16T17:19:17.789Z,20.50
2022-08-16T17:24:18.014Z,20.60
2022-08-16T17:29:22.029Z,20.60
2022-08-16T17:34:34.573Z,20.60
2022-08-16T17:40:00.272Z,21.30
2022-08-16T17:45:06.737Z,21.50
2022-08-16T17:50:10.034Z,21.20
2022-08-16T17:55:22.868Z,21.30
2022-08-16T18:00:26.837Z,21.30
2022-08-16T18:05:29.979Z,21.30
2022-08-16T18:10:33.260Z,21.20
2022-08-16T18:15:39.866Z,21.30
2022-08-16T18:21:00.832Z,21.30
2022-08-16T18:26:06.213Z,21.40
2022-08-16T18:31:09.317Z,21.60
2022-08-16T18:36:20.859Z,21.90
2022-08-16T18:41:26.187Z,22.10
2022-08-16T18:46:28.517Z,22.20
2022-08-16T18:51:31.784Z,21.50
2022-08-16T18:56:55.070Z,21.10
2022-08-16T19:02:00.004Z,20.60
2022-08-16T19:07:06.093Z,20.00
2022-08-16T19:12:08.751Z,19.50
2022-08-16T19:17:11.463Z,19.00
2022-08-16T19:22:13.874Z,18.80
2022-08-16T19:27:16.010Z,18.40
2022-08-16T19:32:24.385Z,18.10
2022-08-16T19:37:27.503Z,17.80
2022-08-16T19:42:29.684Z,17.80
2022-08-16T19:47:32.351Z,17.70
2022-08-16T19:52:35.752Z,17.60
2022-08-16T19:57:38.445Z,17.70
2022-08-16T20:02:47.115Z,17.80
2022-08-16T20:07:49.941Z,17.90
2022-08-16T20:13:02.119Z,17.90
2022-08-16T20:18:09.519Z,17.80
2022-08-16T20:23:25.699Z,17.70
2022-08-16T20:28:51.643Z,17.70
2022-08-16T20:33:51.911Z,17.90
2022-08-16T20:38:56.501Z,17.90
2022-08-16T20:43:58.743Z,18.00
2022-08-16T20:49:01.466Z,18.00
2022-08-16T20:54:03.878Z,18.00
2022-08-16T20:59:06.144Z,18.00
2022-08-16T21:04:08.461Z,18.00
2022-08-16T21:09:10.655Z,18.00
2022-08-16T21:14:12.819Z,18.00
2022-08-16T21:19:15.074Z,17.90
2022-08-16T21:24:17.566Z,17.70
2022-08-16T21:29:19.833Z,17.50
2022-08-16T21:34:22.020Z,17.40
2022-08-16T21:39:24.268Z,17.40
2022-08-16T21:44:32.549Z,17.40
2022-08-16T21:49:41.339Z,17.30
2022-08-16T21:54:43.479Z,17.30
2022-08-16T21:59:45.655Z,17.30
2022-08-16T22:04:49.055Z,17.40
2022-08-16T22:09:51.240Z,17.50
2022-08-16T22:14:53.540Z,17.50
2022-08-16T22:19:55.798Z,17.40
2022-08-16T22:25:00.649Z,17.40
2022-08-16T22:30:02.863Z,17.40
2022-08-16T22:35:12.294Z,17.30
2022-08-16T22:40:17.645Z,17.30
2022-08-16T22:45:20.332Z,17.30
2022-08-16T22:50:22.643Z,17.30
2022-08-16T22:55:26.846Z,17.40
2022-08-16T23:00:31.501Z,17.40
2022-08-16T23:05:42.449Z,17.40
2022-08-16T23:10:46.985Z,17.40
2022-08-16T23:15:51.870Z,17.40
2022-08-16T23:20:56.390Z,17.40
2022-08-16T23:25:59.238Z,17.40
2022-08-16T23:31:04.788Z,17.40
2022-08-16T23:36:07.404Z,17.40
2022-08-16T23:41:12.209Z,17.40
2022-08-16T23:46:17.713Z,17.30
2022-08-16T23:51:19.971Z,17.30
2022-08-16T23:56:22.100Z,17.30
